createdAt,value
2022-12-03T00:04:32.477Z,11.03
2022-12-03T00:14:33.977Z,10.18
2022-12-03T00:24:35.505Z,10.67
2022-12-03T00:34:37.055Z,10.00
2022-12-03T00:44:38.548Z,9.52
2022-12-03T00:54:40.043Z,8.53
2022-12-03T01:04:41.698Z,8.40
2022-12-03T01:14:43.289Z,8.03
2022-12-03T01:24:44.892Z,7.60
2022-12-03T01:34:48.522Z,8.45
2022-12-03T01:44:52.854Z,8.23
2022-12-03T01:54:56.878Z,9.30
2022-12-03T02:04:59.711Z,9.43
2022-12-03T02:15:02.165Z,10.80
2022-12-03T02:25:13.171Z,11.35
2022-12-03T02:35:18.046Z,10.73
2022-12-03T02:45:28.450Z,11.13
2022-12-03T02:55:36.551Z,11.50
2022-12-03T03:05:40.182Z,11.33
2022-12-03T03:15:42.521Z,9.80
2022-12-03T03:25:47.401Z,10.83
2022-12-03T03:35:49.564Z,10.40
2022-12-03T03:45:52.448Z,10.45
2022-12-03T03:55:54.055Z,10.47
2022-12-03T04:05:55.806Z,10.50
2022-12-03T04:15:57.350Z,11.00
2022-12-03T04:25:58.844Z,11.17
2022-12-03T04:36:00.457Z,10.03
2022-12-03T04:46:02.214Z,9.90
2022-12-03T04:56:03.829Z,10.07
2022-12-03T05:06:05.510Z,11.18
2022-12-03T05:16:07.381Z,11.33
2022-12-03T05:26:08.896Z,12.53
2022-12-03T05:36:10.488Z,11.52
2022-12-03T05:46:12.054Z,11.23
2022-12-03T05:56:13.646Z,12.40
2022-12-03T06:06:15.198Z,10.77
2022-12-03T06:16:16.784Z,12.73
2022-12-03T06:26:18.432Z,12.55
2022-12-03T06:36:23.050Z,12.50
2022-12-03T06:46:25.064Z,12.70
2022-12-03T06:56:32.801Z,11.98
2022-12-03T07:06:36.697Z,12.53
2022-12-03T07:16:39.171Z,12.50
2022-12-03T07:26:40.804Z,10.73
2022-12-03T07:36:42.327Z,11.07
2022-12-03T07:46:43.918Z,11.90
2022-12-03T07:56:45.489Z,10.67
2022-12-03T08:06:47.577Z,11.33
2022-12-03T08:16:49.269Z,11.68
2022-12-03T08:26:50.916Z,11.17
2022-12-03T08:37:01.415Z,11.30
2022-12-03T08:47:08.928Z,11.97
2022-12-03T08:57:33.428Z,11.70
2022-12-03T09:07:34.996Z,11.65
2022-12-03T09:17:36.619Z,13.30
2022-12-03T09:27:38.141Z,11.50
2022-12-03T09:37:39.663Z,11.02
2022-12-03T09:47:44.778Z,13.93
2022-12-03T09:57:46.447Z,8.20
2022-12-03T10:07:52.208Z,10.70
2022-12-03T10:17:54.869Z,10.63
2022-12-03T10:27:59.732Z,10.77
2022-12-03T10:38:03.918Z,10.73
2022-12-03T10:48:13.072Z,10.90
2022-12-03T10:58:25.842Z,10.48
2022-12-03T11:08:31.199Z,8.97
2022-12-03T11:18:50.788Z,9.87
2022-12-03T11:28:57.160Z,9.10
2022-12-03T11:38:58.771Z,10.27
2022-12-03T11:49:00.361Z,10.32
2022-12-03T11:59:04.459Z,9.93
2022-12-03T12:09:06.009Z,9.50
2022-12-03T12:19:42.379Z,12.55
2022-12-03T12:29:45.876Z,10.77
2022-12-03T12:39:47.858Z,10.13
2022-12-03T12:49:51.886Z,11.53
2022-12-03T12:59:53.889Z,11.70
2022-12-03T13:09:56.016Z,11.65
2022-12-03T13:20:05.436Z,11.27
2022-12-03T13:30:17.049Z,10.73
2022-12-03T13:40:29.072Z,12.30
2022-12-03T13:50:40.942Z,12.10
2022-12-03T14:00:42.501Z,12.97
2022-12-03T14:10:44.283Z,14.07
2022-12-03T14:20:45.801Z,12.83
2022-12-03T14:30:47.332Z,13.57
2022-12-03T14:40:48.883Z,13.90
2022-12-03T14:50:50.385Z,13.00
2022-12-03T15:00:52.023Z,14.02
2022-12-03T15:10:54.107Z,16.60
2022-12-03T15:20:55.614Z,16.50
2022-12-03T15:30:57.299Z,14.37
2022-12-03T15:40:58.846Z,15.80
2022-12-03T15:51:00.324Z,15.48
2022-12-03T16:01:01.921Z,17.20
2022-12-03T16:11:03.524Z,16.90
2022-12-03T16:21:05.080Z,16.77
2022-12-03T16:31:06.659Z,15.97
2022-12-03T16:41:09.446Z,16.05
2022-12-03T16:51:11.332Z,16.87
2022-12-03T17:01:12.940Z,15.60
2022-12-03T17:11:14.561Z,14.27
2022-12-03T17:21:17.025Z,14.23
2022-12-03T17:31:18.645Z,15.40
2022-12-03T17:41:20.263Z,13.50
2022-12-03T17:51:21.805Z,12.70
2022-12-03T18:01:23.409Z,11.73
2022-12-03T18:11:25.293Z,12.77
2022-12-03T18:21:27.455Z,12.32
2022-12-03T18:31:29.011Z,12.90
2022-12-03T18:41:30.646Z,13.67
2022-12-03T18:51:32.174Z,16.45
2022-12-03T19:01:34.461Z,17.43
2022-12-03T19:11:36.296Z,17.98
2022-12-03T19:21:37.788Z,19.50
2022-12-03T19:31:39.402Z,17.73
2022-12-03T19:41:40.977Z,17.20
2022-12-03T19:51:42.486Z,16.87
2022-12-03T20:01:44.091Z,15.07
2022-12-03T20:11:45.728Z,17.63
2022-12-03T20:21:47.313Z,21.57
2022-12-03T20:31:48.899Z,17.10
2022-12-03T20:41:50.498Z,16.43
2022-12-03T20:51:52.014Z,17.20
2022-12-03T21:01:53.783Z,15.53
2022-12-03T21:11:55.361Z,16.33
2022-12-03T21:21:57.353Z,17.40
2022-12-03T21:31:58.913Z,17.50
2022-12-03T21:42:22.245Z,16.83
2022-12-03T21:52:22.176Z,19.40
2022-12-03T22:02:23.723Z,18.27
2022-12-03T22:12:25.277Z,18.27
2022-12-03T22:22:26.817Z,18.20
2022-12-03T22:32:28.378Z,19.57
2022-12-03T22:42:29.926Z,17.95
2022-12-03T22:52:31.447Z,17.13
2022-12-03T23:02:33.630Z,19.23
2022-12-03T23:12:35.199Z,17.53
2022-12-03T23:22:36.736Z,17.43
2022-12-03T23:32:38.287Z,17.48
2022-12-03T23:42:39.813Z,17.80
2022-12-03T23:52:41.324Z,17.97
